sensor_id;sensor_type;location;lat;lon;timestamp;P1;durP1;ratioP1;P2;durP2;ratioP2
28174;SDS011;59417;44.788;10.334;2022-08-19T00:01:23;31.92;;;25.15;;
28174;SDS011;59417;44.788;10.334;2022-08-19T00:03:50;27.13;;;23.55;;
28174;SDS011;59417;44.788;10.334;2022-08-19T00:06:16;30.25;;;24.88;;
28174;SDS011;59417;44.788;10.334;2022-08-19T00:08:42;29.25;;;24.38;;
28174;SDS011;59417;44.788;10.334;2022-08-19T00:11:08;29.98;;;25.33;;
28174;SDS011;59417;44.788;10.334;2022-08-19T00:13:34;27.92;;;23.95;;
28174;SDS011;59417;44.788;10.334;2022-08-19T00:16:01;26.42;;;23.58;;
28174;SDS011;59417;44.788;10.334;2022-08-19T00:18:27;32.08;;;24.55;;
28174;SDS011;59417;44.788;10.334;2022-08-19T00:20:53;27.83;;;23.10;;
28174;SDS011;59417;44.788;10.334;2022-08-19T00:23:19;30.13;;;24.02;;
28174;SDS011;59417;44.788;10.334;2022-08-19T00:25:44;25.85;;;23.08;;
28174;SDS011;59417;44.788;10.334;2022-08-19T00:28:10;24.20;;;21.45;;
28174;SDS011;59417;44.788;10.334;2022-08-19T00:30:36;26.63;;;22.05;;
28174;SDS011;59417;44.788;10.334;2022-08-19T00:33:02;29.23;;;21.10;;
28174;SDS011;59417;44.788;10.334;2022-08-19T00:35:28;26.83;;;20.98;;
28174;SDS011;59417;44.788;10.334;2022-08-19T00:37:54;26.83;;;21.73;;
28174;SDS011;59417;44.788;10.334;2022-08-19T00:40:20;26.70;;;22.58;;
28174;SDS011;59417;44.788;10.334;2022-08-19T00:42:46;23.52;;;21.05;;
28174;SDS011;59417;44.788;10.334;2022-08-19T00:45:17;26.42;;;23.25;;
28174;SDS011;59417;44.788;10.334;2022-08-19T00:47:49;26.75;;;21.23;;
28174;SDS011;59417;44.788;10.334;2022-08-19T00:50:16;24.58;;;20.38;;
28174;SDS011;59417;44.788;10.334;2022-08-19T00:52:45;22.02;;;19.75;;
28174;SDS011;59417;44.788;10.334;2022-08-19T00:55:18;23.67;;;19.95;;
28174;SDS011;59417;44.788;10.334;2022-08-19T00:57:48;25.98;;;20.80;;
28174;SDS011;59417;44.788;10.334;2022-08-19T01:00:22;25.08;;;20.80;;
28174;SDS011;59417;44.788;10.334;2022-08-19T01:02:49;23.27;;;18.67;;
28174;SDS011;59417;44.788;10.334;2022-08-19T01:05:16;26.38;;;19.80;;
28174;SDS011;59417;44.788;10.334;2022-08-19T01:07:43;27.27;;;19.60;;
28174;SDS011;59417;44.788;10.334;2022-08-19T01:10:11;23.25;;;19.30;;
28174;SDS011;59417;44.788;10.334;2022-08-19T01:12:39;23.65;;;20.30;;
28174;SDS011;59417;44.788;10.334;2022-08-19T01:15:06;26.52;;;20.20;;
28174;SDS011;59417;44.788;10.334;2022-08-19T01:17:33;28.52;;;22.25;;
28174;SDS011;59417;44.788;10.334;2022-08-19T01:20:01;23.92;;;20.27;;
28174;SDS011;59417;44.788;10.334;2022-08-19T01:22:34;26.48;;;20.70;;
28174;SDS011;59417;44.788;10.334;2022-08-19T01:27:41;26.20;;;20.30;;
28174;SDS011;59417;44.788;10.334;2022-08-19T01:30:09;23.52;;;19.50;;
28174;SDS011;59417;44.788;10.334;2022-08-19T01:32:40;24.13;;;20.30;;
28174;SDS011;59417;44.788;10.334;2022-08-19T01:35:06;23.63;;;20.98;;
28174;SDS011;59417;44.788;10.334;2022-08-19T01:40:33;24.58;;;21.77;;
28174;SDS011;59417;44.788;10.334;2022-08-19T01:43:02;29.80;;;20.85;;
28174;SDS011;59417;44.788;10.334;2022-08-19T01:45:29;25.85;;;19.88;;
28174;SDS011;59417;44.788;10.334;2022-08-19T01:47:57;27.15;;;20.45;;
28174;SDS011;59417;44.788;10.334;2022-08-19T01:50:23;26.77;;;20.58;;
28174;SDS011;59417;44.788;10.334;2022-08-19T01:52:49;31.58;;;21.00;;
28174;SDS011;59417;44.788;10.334;2022-08-19T01:55:18;30.50;;;21.38;;
28174;SDS011;59417;44.788;10.334;2022-08-19T02:00:16;27.08;;;22.08;;
28174;SDS011;59417;44.788;10.334;2022-08-19T02:02:44;30.13;;;23.93;;
28174;SDS011;59417;44.788;10.334;2022-08-19T02:05:10;30.58;;;24.00;;
28174;SDS011;59417;44.788;10.334;2022-08-19T02:07:37;29.15;;;23.75;;
28174;SDS011;59417;44.788;10.334;2022-08-19T02:10:08;31.80;;;24.08;;
28174;SDS011;59417;44.788;10.334;2022-08-19T02:12:36;32.28;;;24.00;;
28174;SDS011;59417;44.788;10.334;2022-08-19T02:15:02;37.65;;;25.45;;
28174;SDS011;59417;44.788;10.334;2022-08-19T02:17:28;38.40;;;26.27;;
28174;SDS011;59417;44.788;10.334;2022-08-19T02:19:55;34.00;;;25.15;;
28174;SDS011;59417;44.788;10.334;2022-08-19T02:22:21;39.50;;;26.42;;
28174;SDS011;59417;44.788;10.334;2022-08-19T02:24:48;39.53;;;26.48;;
28174;SDS011;59417;44.788;10.334;2022-08-19T02:27:14;31.23;;;22.15;;
28174;SDS011;59417;44.788;10.334;2022-08-19T02:29:40;35.38;;;19.15;;
28174;SDS011;59417;44.788;10.334;2022-08-19T02:32:06;27.67;;;18.92;;
28174;SDS011;59417;44.788;10.334;2022-08-19T02:34:33;24.98;;;19.10;;
28174;SDS011;59417;44.788;10.334;2022-08-19T02:36:59;24.70;;;15.07;;
28174;SDS011;59417;44.788;10.334;2022-08-19T02:39:25;27.35;;;14.10;;
28174;SDS011;59417;44.788;10.334;2022-08-19T02:41:51;17.50;;;13.45;;
28174;SDS011;59417;44.788;10.334;2022-08-19T02:44:17;14.23;;;9.43;;
28174;SDS011;59417;44.788;10.334;2022-08-19T02:46:44;15.05;;;11.00;;
28174;SDS011;59417;44.788;10.334;2022-08-19T02:49:11;14.77;;;11.48;;
28174;SDS011;59417;44.788;10.334;2022-08-19T02:51:37;13.57;;;9.63;;
28174;SDS011;59417;44.788;10.334;2022-08-19T02:54:06;12.75;;;8.90;;
28174;SDS011;59417;44.788;10.334;2022-08-19T02:56:37;16.77;;;10.90;;
28174;SDS011;59417;44.788;10.334;2022-08-19T02:59:04;9.77;;;5.78;;
28174;SDS011;59417;44.788;10.334;2022-08-19T03:01:35;8.90;;;4.05;;
28174;SDS011;59417;44.788;10.334;2022-08-19T03:04:05;5.38;;;3.65;;
28174;SDS011;59417;44.788;10.334;2022-08-19T03:06:31;7.18;;;3.97;;
28174;SDS011;59417;44.788;10.334;2022-08-19T03:08:58;4.22;;;3.83;;
28174;SDS011;59417;44.788;10.334;2022-08-19T03:11:24;7.68;;;4.75;;
28174;SDS011;59417;44.788;10.334;2022-08-19T03:13:52;6.00;;;4.00;;
28174;SDS011;59417;44.788;10.334;2022-08-19T03:16:20;5.50;;;3.50;;
28174;SDS011;59417;44.788;10.334;2022-08-19T03:18:47;3.42;;;2.28;;
28174;SDS011;59417;44.788;10.334;2022-08-19T03:21:15;3.85;;;1.80;;
28174;SDS011;59417;44.788;10.334;2022-08-19T03:23:42;3.00;;;1.83;;
28174;SDS011;59417;44.788;10.334;2022-08-19T03:26:07;3.00;;;1.60;;
28174;SDS011;59417;44.788;10.334;2022-08-19T03:28:33;3.00;;;1.67;;
28174;SDS011;59417;44.788;10.334;2022-08-19T03:31:01;1.90;;;1.50;;
28174;SDS011;59417;44.788;10.334;2022-08-19T03:33:29;7.70;;;2.08;;
28174;SDS011;59417;44.788;10.334;2022-08-19T03:36:03;4.47;;;1.90;;
28174;SDS011;59417;44.788;10.334;2022-08-19T03:38:37;4.50;;;2.15;;
28174;SDS011;59417;44.788;10.334;2022-08-19T03:41:11;9.68;;;2.72;;
28174;SDS011;59417;44.788;10.334;2022-08-19T03:43:40;4.82;;;2.70;;
28174;SDS011;59417;44.788;10.334;2022-08-19T03:46:07;8.10;;;2.80;;
28174;SDS011;59417;44.788;10.334;2022-08-19T03:48:38;6.20;;;2.17;;
28174;SDS011;59417;44.788;10.334;2022-08-19T03:51:05;4.22;;;1.80;;
28174;SDS011;59417;44.788;10.334;2022-08-19T03:53:32;4.50;;;1.70;;
28174;SDS011;59417;44.788;10.334;2022-08-19T03:56:00;6.05;;;1.52;;
28174;SDS011;59417;44.788;10.334;2022-08-19T03:58:27;4.95;;;1.48;;
28174;SDS011;59417;44.788;10.334;2022-08-19T04:00:54;2.58;;;1.45;;
28174;SDS011;59417;44.788;10.334;2022-08-19T04:03:20;3.78;;;1.50;;
28174;SDS011;59417;44.788;10.334;2022-08-19T04:05:46;3.53;;;1.52;;
28174;SDS011;59417;44.788;10.334;2022-08-19T04:08:12;5.40;;;1.48;;
28174;SDS011;59417;44.788;10.334;2022-08-19T04:10:40;3.63;;;1.30;;
28174;SDS011;59417;44.788;10.334;2022-08-19T04:13:07;3.40;;;1.23;;
28174;SDS011;59417;44.788;10.334;2022-08-19T04:15:38;4.80;;;1.60;;
28174;SDS011;59417;44.788;10.334;2022-08-19T04:18:08;4.43;;;1.60;;
28174;SDS011;59417;44.788;10.334;2022-08-19T04:20:45;3.17;;;1.63;;
28174;SDS011;59417;44.788;10.334;2022-08-19T04:23:12;3.60;;;1.70;;
28174;SDS011;59417;44.788;10.334;2022-08-19T04:25:40;5.68;;;1.80;;
28174;SDS011;59417;44.788;10.334;2022-08-19T04:28:07;7.00;;;1.65;;
28174;SDS011;59417;44.788;10.334;2022-08-19T04:30:42;6.97;;;2.13;;
28174;SDS011;59417;44.788;10.334;2022-08-19T04:33:09;2.50;;;1.45;;
28174;SDS011;59417;44.788;10.334;2022-08-19T04:35:38;3.20;;;1.50;;
28174;SDS011;59417;44.788;10.334;2022-08-19T04:38:05;5.55;;;1.70;;
28174;SDS011;59417;44.788;10.334;2022-08-19T04:40:31;3.53;;;1.52;;
28174;SDS011;59417;44.788;10.334;2022-08-19T04:43:15;3.03;;;1.52;;
28174;SDS011;59417;44.788;10.334;2022-08-19T04:45:44;5.75;;;1.92;;
28174;SDS011;59417;44.788;10.334;2022-08-19T04:48:11;2.67;;;1.90;;
28174;SDS011;59417;44.788;10.334;2022-08-19T04:50:41;3.03;;;1.70;;
28174;SDS011;59417;44.788;10.334;2022-08-19T04:53:08;5.93;;;1.92;;
28174;SDS011;59417;44.788;10.334;2022-08-19T04:55:34;6.80;;;2.33;;
28174;SDS011;59417;44.788;10.334;2022-08-19T04:58:03;5.65;;;1.92;;
28174;SDS011;59417;44.788;10.334;2022-08-19T05:00:31;3.70;;;1.63;;
28174;SDS011;59417;44.788;10.334;2022-08-19T05:03:03;3.72;;;1.70;;
28174;SDS011;59417;44.788;10.334;2022-08-19T05:05:29;4.25;;;1.50;;
28174;SDS011;59417;44.788;10.334;2022-08-19T05:07:56;2.47;;;1.33;;
28174;SDS011;59417;44.788;10.334;2022-08-19T05:10:22;4.47;;;1.88;;
28174;SDS011;59417;44.788;10.334;2022-08-19T05:12:48;3.92;;;1.50;;
28174;SDS011;59417;44.788;10.334;2022-08-19T05:15:13;6.53;;;1.65;;
28174;SDS011;59417;44.788;10.334;2022-08-19T05:17:39;4.63;;;1.50;;
28174;SDS011;59417;44.788;10.334;2022-08-19T05:20:25;3.58;;;1.05;;
28174;SDS011;59417;44.788;10.334;2022-08-19T05:23:10;1.85;;;0.98;;
28174;SDS011;59417;44.788;10.334;2022-08-19T05:25:38;4.30;;;1.20;;
28174;SDS011;59417;44.788;10.334;2022-08-19T05:28:05;3.55;;;1.20;;
28174;SDS011;59417;44.788;10.334;2022-08-19T05:30:30;3.30;;;1.00;;
28174;SDS011;59417;44.788;10.334;2022-08-19T05:32:56;1.40;;;0.90;;
28174;SDS011;59417;44.788;10.334;2022-08-19T05:35:21;3.08;;;1.00;;
28174;SDS011;59417;44.788;10.334;2022-08-19T05:37:48;1.75;;;1.00;;
28174;SDS011;59417;44.788;10.334;2022-08-19T05:40:14;2.60;;;1.13;;
28174;SDS011;59417;44.788;10.334;2022-08-19T05:42:40;2.65;;;1.40;;
28174;SDS011;59417;44.788;10.334;2022-08-19T05:45:06;3.47;;;1.13;;
28174;SDS011;59417;44.788;10.334;2022-08-19T05:47:32;2.17;;;1.40;;
28174;SDS011;59417;44.788;10.334;2022-08-19T05:49:57;5.07;;;1.30;;
28174;SDS011;59417;44.788;10.334;2022-08-19T05:52:23;2.95;;;1.10;;
28174;SDS011;59417;44.788;10.334;2022-08-19T05:54:49;3.47;;;1.60;;
28174;SDS011;59417;44.788;10.334;2022-08-19T05:57:16;1.88;;;1.40;;
28174;SDS011;59417;44.788;10.334;2022-08-19T05:59:42;5.25;;;1.58;;
28174;SDS011;59417;44.788;10.334;2022-08-19T06:02:09;1.85;;;0.90;;
28174;SDS011;59417;44.788;10.334;2022-08-19T06:04:34;1.15;;;0.60;;
28174;SDS011;59417;44.788;10.334;2022-08-19T06:07:00;1.05;;;0.85;;
28174;SDS011;59417;44.788;10.334;2022-08-19T06:09:27;2.90;;;0.95;;
28174;SDS011;59417;44.788;10.334;2022-08-19T06:11:53;4.85;;;0.88;;
28174;SDS011;59417;44.788;10.334;2022-08-19T06:14:25;2.55;;;0.98;;
28174;SDS011;59417;44.788;10.334;2022-08-19T06:16:53;1.30;;;0.80;;
28174;SDS011;59417;44.788;10.334;2022-08-19T06:19:19;1.33;;;1.08;;
28174;SDS011;59417;44.788;10.334;2022-08-19T06:21:47;2.53;;;1.08;;
28174;SDS011;59417;44.788;10.334;2022-08-19T06:24:17;1.08;;;0.82;;
28174;SDS011;59417;44.788;10.334;2022-08-19T06:26:46;1.53;;;0.90;;
28174;SDS011;59417;44.788;10.334;2022-08-19T06:29:14;1.73;;;1.02;;
28174;SDS011;59417;44.788;10.334;2022-08-19T06:31:42;1.33;;;0.68;;
28174;SDS011;59417;44.788;10.334;2022-08-19T06:34:09;2.15;;;0.80;;
28174;SDS011;59417;44.788;10.334;2022-08-19T06:36:36;2.53;;;0.93;;
28174;SDS011;59417;44.788;10.334;2022-08-19T06:39:18;2.33;;;0.98;;
28174;SDS011;59417;44.788;10.334;2022-08-19T06:41:49;2.85;;;0.90;;
28174;SDS011;59417;44.788;10.334;2022-08-19T06:44:18;2.78;;;1.13;;
28174;SDS011;59417;44.788;10.334;2022-08-19T06:46:44;2.10;;;0.90;;
28174;SDS011;59417;44.788;10.334;2022-08-19T06:49:10;1.42;;;0.93;;
28174;SDS011;59417;44.788;10.334;2022-08-19T06:51:42;4.97;;;1.20;;
28174;SDS011;59417;44.788;10.334;2022-08-19T06:54:09;2.47;;;1.20;;
28174;SDS011;59417;44.788;10.334;2022-08-19T06:56:36;1.30;;;0.90;;
28174;SDS011;59417;44.788;10.334;2022-08-19T06:59:08;4.32;;;1.30;;
28174;SDS011;59417;44.788;10.334;2022-08-19T07:01:41;3.38;;;1.00;;
28174;SDS011;59417;44.788;10.334;2022-08-19T07:04:12;2.53;;;1.13;;
28174;SDS011;59417;44.788;10.334;2022-08-19T07:06:43;2.28;;;1.30;;
28174;SDS011;59417;44.788;10.334;2022-08-19T07:09:10;2.58;;;1.20;;
28174;SDS011;59417;44.788;10.334;2022-08-19T07:11:38;2.45;;;1.20;;
28174;SDS011;59417;44.788;10.334;2022-08-19T07:14:06;2.10;;;1.15;;
28174;SDS011;59417;44.788;10.334;2022-08-19T07:16:38;5.13;;;1.73;;
28174;SDS011;59417;44.788;10.334;2022-08-19T07:19:18;3.97;;;1.38;;
28174;SDS011;59417;44.788;10.334;2022-08-19T07:21:45;1.65;;;0.90;;
28174;SDS011;59417;44.788;10.334;2022-08-19T07:24:12;1.42;;;0.88;;
28174;SDS011;59417;44.788;10.334;2022-08-19T07:26:40;2.65;;;1.30;;
28174;SDS011;59417;44.788;10.334;2022-08-19T07:29:10;1.53;;;1.00;;
28174;SDS011;59417;44.788;10.334;2022-08-19T07:31:39;2.38;;;1.00;;
28174;SDS011;59417;44.788;10.334;2022-08-19T07:34:08;2.40;;;1.15;;
28174;SDS011;59417;44.788;10.334;2022-08-19T07:36:37;3.38;;;1.52;;
28174;SDS011;59417;44.788;10.334;2022-08-19T07:39:10;1.42;;;1.25;;
28174;SDS011;59417;44.788;10.334;2022-08-19T07:41:37;1.55;;;0.93;;
28174;SDS011;59417;44.788;10.334;2022-08-19T07:44:05;1.58;;;1.23;;
28174;SDS011;59417;44.788;10.334;2022-08-19T07:46:32;1.80;;;1.38;;
28174;SDS011;59417;44.788;10.334;2022-08-19T07:49:03;3.47;;;1.27;;
28174;SDS011;59417;44.788;10.334;2022-08-19T07:51:29;1.92;;;1.05;;
28174;SDS011;59417;44.788;10.334;2022-08-19T07:53:55;2.05;;;0.95;;
28174;SDS011;59417;44.788;10.334;2022-08-19T07:56:25;4.43;;;1.30;;
28174;SDS011;59417;44.788;10.334;2022-08-19T07:58:51;2.90;;;0.88;;
28174;SDS011;59417;44.788;10.334;2022-08-19T08:01:19;3.22;;;1.05;;
28174;SDS011;59417;44.788;10.334;2022-08-19T08:03:47;3.70;;;1.38;;
28174;SDS011;59417;44.788;10.334;2022-08-19T08:06:33;1.58;;;1.23;;
28174;SDS011;59417;44.788;10.334;2022-08-19T08:09:19;3.35;;;0.98;;
28174;SDS011;59417;44.788;10.334;2022-08-19T08:11:52;2.13;;;0.98;;
28174;SDS011;59417;44.788;10.334;2022-08-19T08:14:21;2.17;;;0.68;;
28174;SDS011;59417;44.788;10.334;2022-08-19T08:16:49;1.00;;;0.90;;
28174;SDS011;59417;44.788;10.334;2022-08-19T08:19:17;1.38;;;0.82;;
28174;SDS011;59417;44.788;10.334;2022-08-19T08:21:44;0.85;;;0.68;;
28174;SDS011;59417;44.788;10.334;2022-08-19T08:24:10;1.67;;;0.95;;
28174;SDS011;59417;44.788;10.334;2022-08-19T08:26:37;2.28;;;0.90;;
28174;SDS011;59417;44.788;10.334;2022-08-19T08:29:04;3.03;;;0.98;;
28174;SDS011;59417;44.788;10.334;2022-08-19T08:31:29;1.02;;;0.70;;
28174;SDS011;59417;44.788;10.334;2022-08-19T08:33:55;2.25;;;0.98;;
28174;SDS011;59417;44.788;10.334;2022-08-19T08:36:30;1.75;;;0.68;;
28174;SDS011;59417;44.788;10.334;2022-08-19T08:38:59;1.02;;;0.90;;
28174;SDS011;59417;44.788;10.334;2022-08-19T08:41:34;1.25;;;1.00;;
28174;SDS011;59417;44.788;10.334;2022-08-19T08:44:16;1.73;;;1.13;;
28174;SDS011;59417;44.788;10.334;2022-08-19T08:54:55;3.53;;;1.35;;
28174;SDS011;59417;44.788;10.334;2022-08-19T08:57:26;3.55;;;1.50;;
28174;SDS011;59417;44.788;10.334;2022-08-19T08:59:59;4.63;;;1.83;;
28174;SDS011;59417;44.788;10.334;2022-08-19T09:02:28;1.92;;;1.35;;
28174;SDS011;59417;44.788;10.334;2022-08-19T09:04:54;2.08;;;1.30;;
28174;SDS011;59417;44.788;10.334;2022-08-19T09:10:28;5.57;;;2.20;;
28174;SDS011;59417;44.788;10.334;2022-08-19T09:13:14;3.72;;;2.17;;
28174;SDS011;59417;44.788;10.334;2022-08-19T09:15:47;2.65;;;1.45;;
28174;SDS011;59417;44.788;10.334;2022-08-19T09:18:17;2.85;;;1.27;;
28174;SDS011;59417;44.788;10.334;2022-08-19T09:20:43;7.72;;;1.83;;
28174;SDS011;59417;44.788;10.334;2022-08-19T09:23:11;3.15;;;1.90;;
28174;SDS011;59417;44.788;10.334;2022-08-19T09:25:37;6.20;;;1.70;;
28174;SDS011;59417;44.788;10.334;2022-08-19T09:28:05;3.05;;;2.10;;
28174;SDS011;59417;44.788;10.334;2022-08-19T09:30:38;2.30;;;1.70;;
28174;SDS011;59417;44.788;10.334;2022-08-19T09:33:06;5.13;;;2.60;;
28174;SDS011;59417;44.788;10.334;2022-08-19T09:35:32;2.67;;;1.70;;
28174;SDS011;59417;44.788;10.334;2022-08-19T09:37:59;3.05;;;1.95;;
28174;SDS011;59417;44.788;10.334;2022-08-19T09:40:26;2.13;;;1.45;;
28174;SDS011;59417;44.788;10.334;2022-08-19T09:42:53;2.58;;;1.90;;
28174;SDS011;59417;44.788;10.334;2022-08-19T09:45:20;3.28;;;1.70;;
28174;SDS011;59417;44.788;10.334;2022-08-19T09:47:48;4.78;;;2.10;;
28174;SDS011;59417;44.788;10.334;2022-08-19T09:50:16;2.63;;;2.00;;
28174;SDS011;59417;44.788;10.334;2022-08-19T09:52:43;3.88;;;1.70;;
28174;SDS011;59417;44.788;10.334;2022-08-19T09:55:09;2.10;;;1.25;;
28174;SDS011;59417;44.788;10.334;2022-08-19T09:57:36;2.60;;;1.17;;
28174;SDS011;59417;44.788;10.334;2022-08-19T10:00:03;2.78;;;1.00;;
28174;SDS011;59417;44.788;10.334;2022-08-19T10:02:32;2.58;;;1.08;;
28174;SDS011;59417;44.788;10.334;2022-08-19T10:04:59;1.75;;;0.88;;
28174;SDS011;59417;44.788;10.334;2022-08-19T10:07:43;1.17;;;0.82;;
28174;SDS011;59417;44.788;10.334;2022-08-19T10:10:08;1.77;;;1.13;;
28174;SDS011;59417;44.788;10.334;2022-08-19T10:12:35;3.22;;;0.93;;
28174;SDS011;59417;44.788;10.334;2022-08-19T10:15:02;1.23;;;0.70;;
28174;SDS011;59417;44.788;10.334;2022-08-19T10:17:29;1.95;;;1.10;;
28174;SDS011;59417;44.788;10.334;2022-08-19T10:19:54;1.63;;;0.82;;
28174;SDS011;59417;44.788;10.334;2022-08-19T10:22:20;2.13;;;0.98;;
28174;SDS011;59417;44.788;10.334;2022-08-19T10:24:46;1.48;;;1.13;;
28174;SDS011;59417;44.788;10.334;2022-08-19T10:27:12;5.20;;;1.05;;
28174;SDS011;59417;44.788;10.334;2022-08-19T10:29:39;1.60;;;1.00;;
28174;SDS011;59417;44.788;10.334;2022-08-19T10:32:06;2.05;;;1.23;;
28174;SDS011;59417;44.788;10.334;2022-08-19T10:34:34;1.90;;;0.88;;
28174;SDS011;59417;44.788;10.334;2022-08-19T10:37:04;2.10;;;0.73;;
28174;SDS011;59417;44.788;10.334;2022-08-19T10:39:34;1.98;;;1.02;;
28174;SDS011;59417;44.788;10.334;2022-08-19T10:42:06;4.03;;;0.85;;
28174;SDS011;59417;44.788;10.334;2022-08-19T10:44:34;1.95;;;1.00;;
28174;SDS011;59417;44.788;10.334;2022-08-19T10:47:00;1.35;;;0.80;;
28174;SDS011;59417;44.788;10.334;2022-08-19T10:49:27;1.10;;;0.75;;
28174;SDS011;59417;44.788;10.334;2022-08-19T10:51:53;1.15;;;0.82;;
28174;SDS011;59417;44.788;10.334;2022-08-19T10:54:53;2.28;;;1.10;;
28174;SDS011;59417;44.788;10.334;2022-08-19T10:57:38;2.45;;;1.02;;
28174;SDS011;59417;44.788;10.334;2022-08-19T11:00:06;2.35;;;1.10;;
28174;SDS011;59417;44.788;10.334;2022-08-19T11:02:33;1.58;;;0.90;;
28174;SDS011;59417;44.788;10.334;2022-08-19T11:04:58;1.00;;;0.85;;
28174;SDS011;59417;44.788;10.334;2022-08-19T11:07:24;1.70;;;0.90;;
28174;SDS011;59417;44.788;10.334;2022-08-19T11:09:51;1.70;;;0.70;;
28174;SDS011;59417;44.788;10.334;2022-08-19T11:12:17;1.50;;;0.88;;
28174;SDS011;59417;44.788;10.334;2022-08-19T11:14:44;1.23;;;0.77;;
28174;SDS011;59417;44.788;10.334;2022-08-19T11:17:10;1.63;;;0.90;;
28174;SDS011;59417;44.788;10.334;2022-08-19T11:19:38;1.23;;;0.80;;
28174;SDS011;59417;44.788;10.334;2022-08-19T11:22:07;2.38;;;0.85;;
28174;SDS011;59417;44.788;10.334;2022-08-19T11:24:34;0.80;;;0.70;;
28174;SDS011;59417;44.788;10.334;2022-08-19T11:27:05;0.77;;;0.77;;
28174;SDS011;59417;44.788;10.334;2022-08-19T11:29:35;1.95;;;0.80;;
28174;SDS011;59417;44.788;10.334;2022-08-19T11:32:04;2.50;;;0.68;;
28174;SDS011;59417;44.788;10.334;2022-08-19T11:34:32;1.40;;;0.97;;
28174;SDS011;59417;44.788;10.334;2022-08-19T11:36:58;1.10;;;0.90;;
28174;SDS011;59417;44.788;10.334;2022-08-19T11:39:25;1.63;;;0.70;;
28174;SDS011;59417;44.788;10.334;2022-08-19T11:41:53;1.65;;;1.10;;
28174;SDS011;59417;44.788;10.334;2022-08-19T11:44:19;2.08;;;0.70;;
28174;SDS011;59417;44.788;10.334;2022-08-19T11:46:45;1.95;;;0.95;;
28174;SDS011;59417;44.788;10.334;2022-08-19T11:49:14;1.13;;;0.77;;
28174;SDS011;59417;44.788;10.334;2022-08-19T11:51:44;1.35;;;0.70;;
28174;SDS011;59417;44.788;10.334;2022-08-19T11:54:14;1.45;;;0.70;;
28174;SDS011;59417;44.788;10.334;2022-08-19T11:56:42;0.90;;;0.80;;
28174;SDS011;59417;44.788;10.334;2022-08-19T11:59:08;3.55;;;1.10;;
28174;SDS011;59417;44.788;10.334;2022-08-19T12:01:35;1.10;;;0.80;;
28174;SDS011;59417;44.788;10.334;2022-08-19T12:04:01;1.65;;;0.63;;
28174;SDS011;59417;44.788;10.334;2022-08-19T12:06:30;2.72;;;0.70;;
28174;SDS011;59417;44.788;10.334;2022-08-19T12:09:00;2.08;;;0.80;;
28174;SDS011;59417;44.788;10.334;2022-08-19T12:11:30;1.83;;;0.68;;
28174;SDS011;59417;44.788;10.334;2022-08-19T12:13:56;2.28;;;0.70;;
28174;SDS011;59417;44.788;10.334;2022-08-19T12:16:23;2.60;;;0.90;;
28174;SDS011;59417;44.788;10.334;2022-08-19T12:18:52;1.02;;;0.60;;
28174;SDS011;59417;44.788;10.334;2022-08-19T12:21:20;2.88;;;0.90;;
28174;SDS011;59417;44.788;10.334;2022-08-19T12:23:50;3.13;;;0.75;;
28174;SDS011;59417;44.788;10.334;2022-08-19T12:26:17;1.35;;;0.90;;
28174;SDS011;59417;44.788;10.334;2022-08-19T12:28:43;1.75;;;0.60;;
28174;SDS011;59417;44.788;10.334;2022-08-19T12:31:10;4.63;;;1.17;;
28174;SDS011;59417;44.788;10.334;2022-08-19T12:33:39;2.47;;;1.00;;
28174;SDS011;59417;44.788;10.334;2022-08-19T12:36:06;2.33;;;0.80;;
28174;SDS011;59417;44.788;10.334;2022-08-19T12:38:34;1.33;;;0.82;;
28174;SDS011;59417;44.788;10.334;2022-08-19T12:41:00;0.70;;;0.52;;
28174;SDS011;59417;44.788;10.334;2022-08-19T12:43:30;1.70;;;0.73;;
28174;SDS011;59417;44.788;10.334;2022-08-19T12:45:56;1.17;;;0.90;;
28174;SDS011;59417;44.788;10.334;2022-08-19T12:48:21;1.58;;;0.82;;
28174;SDS011;59417;44.788;10.334;2022-08-19T12:50:47;0.98;;;0.60;;
28174;SDS011;59417;44.788;10.334;2022-08-19T12:53:13;1.48;;;0.73;;
28174;SDS011;59417;44.788;10.334;2022-08-19T12:55:40;0.50;;;0.50;;
28174;SDS011;59417;44.788;10.334;2022-08-19T12:58:07;3.70;;;0.82;;
28174;SDS011;59417;44.788;10.334;2022-08-19T13:00:33;1.48;;;0.50;;
28174;SDS011;59417;44.788;10.334;2022-08-19T13:02:59;1.05;;;0.70;;
28174;SDS011;59417;44.788;10.334;2022-08-19T13:05:26;0.93;;;0.70;;
28174;SDS011;59417;44.788;10.334;2022-08-19T13:07:55;0.82;;;0.60;;
28174;SDS011;59417;44.788;10.334;2022-08-19T13:10:22;0.63;;;0.60;;
28174;SDS011;59417;44.788;10.334;2022-08-19T13:12:50;1.52;;;0.80;;
28174;SDS011;59417;44.788;10.334;2022-08-19T13:15:18;1.95;;;0.80;;
28174;SDS011;59417;44.788;10.334;2022-08-19T13:17:46;1.45;;;0.80;;
28174;SDS011;59417;44.788;10.334;2022-08-19T13:20:14;2.30;;;0.82;;
28174;SDS011;59417;44.788;10.334;2022-08-19T13:22:42;2.23;;;0.93;;
28174;SDS011;59417;44.788;10.334;2022-08-19T13:25:09;1.23;;;0.70;;
28174;SDS011;59417;44.788;10.334;2022-08-19T13:27:36;5.43;;;0.85;;
28174;SDS011;59417;44.788;10.334;2022-08-19T13:30:03;1.33;;;0.70;;
28174;SDS011;59417;44.788;10.334;2022-08-19T13:32:48;2.97;;;0.80;;
28174;SDS011;59417;44.788;10.334;2022-08-19T13:35:32;2.38;;;0.70;;
28174;SDS011;59417;44.788;10.334;2022-08-19T13:37:58;1.48;;;0.70;;
28174;SDS011;59417;44.788;10.334;2022-08-19T13:40:24;1.02;;;0.50;;
28174;SDS011;59417;44.788;10.334;2022-08-19T13:42:53;0.52;;;0.50;;
28174;SDS011;59417;44.788;10.334;2022-08-19T13:45:21;1.38;;;0.70;;
28174;SDS011;59417;44.788;10.334;2022-08-19T13:47:48;4.25;;;0.90;;
28174;SDS011;59417;44.788;10.334;2022-08-19T13:50:17;1.25;;;0.55;;
28174;SDS011;59417;44.788;10.334;2022-08-19T13:52:47;1.17;;;0.63;;
28174;SDS011;59417;44.788;10.334;2022-08-19T13:55:14;2.10;;;0.75;;
28174;SDS011;59417;44.788;10.334;2022-08-19T13:57:40;3.25;;;0.57;;
28174;SDS011;59417;44.788;10.334;2022-08-19T14:00:12;1.23;;;0.50;;
28174;SDS011;59417;44.788;10.334;2022-08-19T14:02:50;0.75;;;0.75;;
28174;SDS011;59417;44.788;10.334;2022-08-19T14:05:18;2.07;;;0.80;;
28174;SDS011;59417;44.788;10.334;2022-08-19T14:07:44;2.20;;;0.90;;
28174;SDS011;59417;44.788;10.334;2022-08-19T14:10:10;1.27;;;0.70;;
28174;SDS011;59417;44.788;10.334;2022-08-19T14:12:37;0.50;;;0.50;;
28174;SDS011;59417;44.788;10.334;2022-08-19T14:15:05;2.83;;;0.82;;
28174;SDS011;59417;44.788;10.334;2022-08-19T14:17:31;2.08;;;0.63;;
28174;SDS011;59417;44.788;10.334;2022-08-19T14:20:00;1.00;;;0.80;;
28174;SDS011;59417;44.788;10.334;2022-08-19T14:22:32;1.35;;;0.93;;
28174;SDS011;59417;44.788;10.334;2022-08-19T14:24:59;1.20;;;0.70;;
28174;SDS011;59417;44.788;10.334;2022-08-19T14:27:25;1.80;;;0.90;;
28174;SDS011;59417;44.788;10.334;2022-08-19T14:29:51;1.92;;;0.63;;
28174;SDS011;59417;44.788;10.334;2022-08-19T14:32:18;2.58;;;1.00;;
28174;SDS011;59417;44.788;10.334;2022-08-19T14:34:43;0.68;;;0.68;;
28174;SDS011;59417;44.788;10.334;2022-08-19T14:37:13;2.97;;;1.10;;
28174;SDS011;59417;44.788;10.334;2022-08-19T14:39:40;2.17;;;1.00;;
28174;SDS011;59417;44.788;10.334;2022-08-19T14:42:11;1.88;;;0.80;;
28174;SDS011;59417;44.788;10.334;2022-08-19T14:44:39;1.73;;;1.17;;
28174;SDS011;59417;44.788;10.334;2022-08-19T14:47:06;1.13;;;0.80;;
28174;SDS011;59417;44.788;10.334;2022-08-19T14:49:32;1.45;;;0.70;;
28174;SDS011;59417;44.788;10.334;2022-08-19T14:52:02;3.47;;;1.05;;
28174;SDS011;59417;44.788;10.334;2022-08-19T14:54:33;2.47;;;1.13;;